Time;durP1;ratioP1;P1;durP2;ratioP2;P2;SDS_P1;SDS_P2;PMS_P1;PMS_P2;Temp;Humidity;BMP_temperature;BMP_pressure;BME280_temperature;BME280_humidity;BME280_pressure;Samples;Min_cycle;Max_cycle;Signal;HPM_P1;HPM_P2
2022/03/14 00:00:39;;;;;;;185.48;72.82;;;;;;;-0.07;51.08;96180.53;4918148;29;20043;-77
2022/03/14 00:03:05;;;;;;;157.77;67.00;;;;;;;0.01;50.43;96179.88;4933485;29;20051;-76
2022/03/14 00:05:32;;;;;;;166.07;70.43;;;;;;;-0.02;49.74;96185.25;4917062;29;20078;-77
2022/03/14 00:07:59;;;;;;;136.32;62.03;;;;;;;-0.06;49.43;96184.72;4932996;29;20111;-77
2022/03/14 00:10:24;;;;;;;152.77;67.05;;;;;;;-0.03;49.84;96181.88;4933444;29;20408;-77
2022/03/14 00:12:53;;;;;;;157.43;68.60;;;;;;;-0.03;49.86;96188.75;4933569;29;20508;-77
2022/03/14 00:15:19;;;;;;;186.32;76.78;;;;;;;-0.06;50.76;96189.00;4932990;29;20114;-77
2022/03/14 00:17:45;;;;;;;196.63;83.57;;;;;;;-0.07;51.36;96197.63;4916865;29;20043;-77
2022/03/14 00:20:11;;;;;;;209.15;89.95;;;;;;;-0.07;51.83;96185.66;4934334;29;20040;-77
2022/03/14 00:22:37;;;;;;;199.45;87.00;;;;;;;-0.04;51.65;96187.94;4935019;29;20179;-77
2022/03/14 00:25:06;;;;;;;194.27;81.50;;;;;;;-0.06;51.89;96184.72;4925423;29;20529;-77
2022/03/14 00:27:32;;;;;;;177.73;79.75;;;;;;;-0.08;52.30;96194.25;4934111;29;20043;-76
2022/03/14 00:29:58;;;;;;;183.23;82.25;;;;;;;-0.08;51.63;96194.25;4916914;29;20039;-77
2022/03/14 00:32:24;;;;;;;203.55;88.95;;;;;;;-0.09;50.97;96195.22;4935027;29;20035;-77
2022/03/14 00:34:49;;;;;;;200.02;94.90;;;;;;;-0.11;51.34;96202.19;4917908;29;20040;-77
2022/03/14 00:37:15;;;;;;;191.23;88.38;;;;;;;-0.14;51.53;96202.47;4917178;29;20509;-77
2022/03/14 00:39:41;;;;;;;177.75;82.63;;;;;;;-0.11;51.09;96206.50;4932761;29;20488;-77
2022/03/14 00:42:06;;;;;;;148.88;74.65;;;;;;;-0.14;51.95;96202.47;4916043;29;20091;-77
2022/03/14 00:44:32;;;;;;;167.15;80.40;;;;;;;-0.09;50.91;96209.75;4916667;29;20062;-77
2022/03/14 00:46:58;;;;;;;135.15;63.95;;;;;;;-0.12;51.47;96210.00;4933934;29;20117;-77
2022/03/14 00:49:23;;;;;;;123.75;66.28;;;;;;;-0.18;51.44;96213.06;4900712;29;20055;-77
2022/03/14 00:51:49;;;;;;;134.68;66.65;;;;;;;-0.21;51.79;96206.47;4932754;29;20047;-77
2022/03/14 00:54:14;;;;;;;147.23;72.38;;;;;;;-0.30;51.97;96217.50;4916409;29;20040;-77
2022/03/14 00:56:39;;;;;;;151.57;77.70;;;;;;;-0.31;52.25;96221.00;4932471;29;20054;-77
2022/03/14 00:59:05;;;;;;;148.95;80.03;;;;;;;-0.32;51.56;96229.59;4932356;29;20032;-77
2022/03/14 01:01:31;;;;;;;147.82;74.07;;;;;;;-0.38;52.16;96222.44;4933850;29;20035;-77
2022/03/14 01:03:58;;;;;;;139.48;67.43;;;;;;;-0.39;52.17;96220.81;4932227;29;20404;-76
2022/03/14 01:06:24;;;;;;;159.43;83.72;;;;;;;-0.42;52.68;96226.19;4932648;29;20044;-75
2022/03/14 01:08:49;;;;;;;148.85;76.70;;;;;;;-0.47;52.28;96230.91;4932553;29;20040;-77
2022/03/14 01:11:14;;;;;;;144.95;66.35;;;;;;;-0.43;51.60;96232.25;4933279;29;20044;-77
2022/03/14 01:13:54;;;;;;;137.45;64.38;;;;;;;-0.44;51.95;96230.63;4900708;29;20075;-77
2022/03/14 01:16:31;;;;;;;130.80;64.55;;;;;;;-0.48;51.80;96229.28;4931583;29;20070;-76
2022/03/14 01:18:57;;;;;;;148.80;63.50;;;;;;;-0.47;51.09;96226.59;4931743;29;20043;-77
2022/03/14 01:21:23;;;;;;;153.43;72.18;;;;;;;-0.57;51.21;96230.84;4932411;29;20055;-77
2022/03/14 01:23:49;;;;;;;156.23;72.15;;;;;;;-0.55;51.59;96233.25;4933185;29;20050;-77
2022/03/14 01:26:14;;;;;;;156.25;67.10;;;;;;;-0.55;52.39;96233.25;4932856;29;20040;-76
2022/03/14 01:28:40;;;;;;;129.50;58.88;;;;;;;-0.53;51.52;96232.19;4931134;29;20035;-77
2022/03/14 01:31:05;;;;;;;134.20;59.80;;;;;;;-0.61;51.42;96235.41;4931914;29;20526;-77
2022/03/14 01:33:31;;;;;;;135.85;61.97;;;;;;;-0.54;51.99;96237.44;4916109;29;20031;-75
2022/03/14 01:35:56;;;;;;;127.70;57.63;;;;;;;-0.54;52.10;96234.88;4931591;29;20039;-78
2022/03/14 01:38:22;;;;;;;128.80;60.10;;;;;;;-0.48;51.96;96240.31;4933032;29;20036;-75
2022/03/14 01:40:47;;;;;;;144.48;66.20;;;;;;;-0.50;51.95;96241.34;4915753;29;20035;-77
2022/03/14 01:43:13;;;;;;;136.13;63.85;;;;;;;-0.49;52.32;96241.25;4932097;29;20043;-76
2022/03/14 01:45:39;;;;;;;122.45;58.00;;;;;;;-0.53;52.64;96244.16;4916042;29;20039;-76
2022/03/14 01:48:06;;;;;;;163.88;76.20;;;;;;;-0.50;52.79;96242.16;4931678;29;20135;-77
2022/03/14 01:50:33;;;;;;;151.88;71.80;;;;;;;-0.48;52.65;96254.81;4932615;29;20036;-75
2022/03/14 01:52:58;;;;;;;162.32;73.03;;;;;;;-0.49;52.97;96245.53;4931435;29;20044;-77
2022/03/14 01:55:24;;;;;;;150.93;67.63;;;;;;;-0.54;53.38;96245.09;4931166;29;20035;-76
2022/03/14 01:57:49;;;;;;;154.82;68.53;;;;;;;-0.55;53.46;96251.16;4915770;29;20032;-77
2022/03/14 02:00:14;;;;;;;148.23;69.35;;;;;;;-0.48;53.12;96254.81;4915778;29;20063;-76
2022/03/14 02:02:49;;;;;;;145.20;71.43;;;;;;;-0.52;53.02;96248.34;4930415;29;20046;-77
2022/03/14 02:05:16;;;;;;;151.85;68.68;;;;;;;-0.50;52.64;96256.69;4915853;29;20123;-76
2022/03/14 02:07:41;;;;;;;162.77;71.43;;;;;;;-0.54;53.14;96260.44;4932926;29;20094;-77
2022/03/14 02:10:08;;;;;;;141.50;64.85;;;;;;;-0.58;53.00;96253.97;4931225;29;20428;-77
2022/03/14 02:12:33;;;;;;;132.20;60.15;;;;;;;-0.62;52.96;96259.34;4931801;29;20044;-76
2022/03/14 02:14:59;;;;;;;93.47;47.47;;;;;;;-0.67;52.17;96260.63;4932405;29;20082;-76
2022/03/14 02:17:24;;;;;;;100.20;47.20;;;;;;;-0.75;52.46;96261.28;4915955;29;20044;-77
2022/03/14 02:19:51;;;;;;;91.97;42.50;;;;;;;-0.79;52.50;96262.47;4931285;29;20067;-77
2022/03/14 02:22:17;;;;;;;71.15;37.35;;;;;;;-0.73;52.38;96267.06;4931343;29;20106;-77
2022/03/14 02:24:46;;;;;;;87.47;38.72;;;;;;;-0.80;53.13;96271.06;4930968;29;20626;-77
2022/03/14 02:27:13;;;;;;;92.45;41.15;;;;;;;-0.77;52.33;96270.81;4931023;29;20046;-76
2022/03/14 02:29:39;;;;;;;86.63;43.72;;;;;;;-0.79;52.13;96277.00;4930987;29;20504;-76
2022/03/14 02:32:05;;;;;;;94.32;42.67;;;;;;;-0.83;52.23;96281.50;4899436;29;20044;-76
2022/03/14 02:34:31;;;;;;;79.80;40.10;;;;;;;-0.85;53.14;96280.84;4915364;29;20040;-76
2022/03/14 02:36:56;;;;;;;78.45;38.50;;;;;;;-0.85;52.89;96283.38;4931452;29;20051;-77
2022/03/14 02:39:22;;;;;;;78.80;38.22;;;;;;;-0.83;52.60;96285.81;4931068;29;20031;-76
2022/03/14 02:41:47;;;;;;;81.50;39.97;;;;;;;-0.87;53.00;96290.38;4931325;29;20547;-77
2022/03/14 02:44:13;;;;;;;89.75;41.03;;;;;;;-0.86;51.96;96297.09;4915439;29;20039;-77
2022/03/14 02:46:39;;;;;;;101.72;44.65;;;;;;;-0.95;52.59;96298.66;4932348;29;20550;-77
2022/03/14 02:49:08;;;;;;;137.25;59.22;;;;;;;-0.98;52.72;96298.09;4930623;29;20512;-76
2022/03/14 02:51:34;;;;;;;109.85;50.90;;;;;;;-1.02;52.20;96301.81;4932114;29;20075;-76
2022/03/14 02:54:02;;;;;;;107.55;44.80;;;;;;;-1.06;52.13;96308.94;4934298;29;20031;-77
2022/03/14 02:56:27;;;;;;;75.00;37.60;;;;;;;-1.07;51.19;96298.84;4933519;29;20108;-75
2022/03/14 02:58:53;;;;;;;80.53;36.83;;;;;;;-1.14;51.85;96307.91;4917925;29;20035;-75
2022/03/14 03:01:19;;;;;;;78.07;36.45;;;;;;;-1.10;51.41;96309.31;4935498;29;20082;-76
2022/03/14 03:03:44;;;;;;;79.82;38.03;;;;;;;-1.07;52.35;96320.06;4918179;29;20070;-77
2022/03/14 03:06:13;;;;;;;88.00;41.72;;;;;;;-1.09;52.31;96313.47;4935553;29;20040;-77
2022/03/14 03:08:43;;;;;;;92.63;40.10;;;;;;;-1.17;53.53;96319.19;4933267;29;20032;-77
2022/03/14 03:11:11;;;;;;;98.82;42.70;;;;;;;-1.12;53.60;96313.72;4911939;29;20043;-76
2022/03/14 03:13:38;;;;;;;95.75;42.47;;;;;;;-1.22;53.37;96314.44;4934370;29;20024;-77
2022/03/14 03:16:07;;;;;;;100.30;44.63;;;;;;;-1.26;53.42;96314.81;4934307;29;20047;-76
2022/03/14 03:18:32;;;;;;;92.80;42.80;;;;;;;-1.25;53.29;96321.53;4933892;29;20044;-76
2022/03/14 03:20:58;;;;;;;87.40;37.20;;;;;;;-1.25;53.56;96327.47;4918028;29;20043;-76
2022/03/14 03:23:24;;;;;;;79.80;42.15;;;;;;;-1.21;53.61;96333.13;4934999;29;20104;-76
2022/03/14 03:25:53;;;;;;;113.35;52.42;;;;;;;-1.22;53.49;96327.22;4933194;29;20040;-78
2022/03/14 03:28:18;;;;;;;127.25;53.65;;;;;;;-1.25;53.23;96331.75;4918826;29;20052;-77
2022/03/14 03:30:44;;;;;;;142.52;60.70;;;;;;;-1.27;53.75;96329.31;4933812;29;20032;-75
2022/03/14 03:33:09;;;;;;;140.02;61.22;;;;;;;-1.27;53.47;96333.63;4933881;29;20768;-78
2022/03/14 03:35:35;;;;;;;144.75;65.72;;;;;;;-1.34;53.89;96343.47;4934811;29;20030;-77
2022/03/14 03:38:01;;;;;;;167.57;75.65;;;;;;;-1.38;54.43;96342.09;4934719;29;20051;-76
2022/03/14 03:40:26;;;;;;;166.13;79.72;;;;;;;-1.43;54.01;96344.22;4934959;29;20031;-76
2022/03/14 03:42:51;;;;;;;164.48;71.28;;;;;;;-1.36;53.85;96344.53;4934924;29;20373;-76
2022/03/14 03:45:18;;;;;;;136.27;69.30;;;;;;;-1.35;53.81;96344.41;4934585;29;20031;-76
2022/03/14 03:47:43;;;;;;;135.15;67.20;;;;;;;-1.33;53.54;96345.09;4934991;29;20461;-77
2022/03/14 03:50:09;;;;;;;154.20;68.32;;;;;;;-1.31;53.63;96353.44;4934739;29;20035;-77
2022/03/14 03:52:35;;;;;;;143.88;68.50;;;;;;;-1.32;54.02;96356.91;4933545;29;20864;-75
2022/03/14 03:55:00;;;;;;;146.57;66.00;;;;;;;-1.24;53.97;96358.88;4932327;29;20032;-75
2022/03/14 03:57:26;;;;;;;157.57;70.90;;;;;;;-1.30;53.90;96364.47;4934627;29;20050;-76
2022/03/14 03:59:51;;;;;;;150.93;74.00;;;;;;;-1.30;54.53;96360.19;4933122;29;20043;-75
2022/03/14 04:02:19;;;;;;;151.60;72.68;;;;;;;-1.25;54.10;96364.94;4934324;29;20571;-77
2022/03/14 04:04:46;;;;;;;171.80;82.60;;;;;;;-1.30;54.19;96365.28;4932459;29;20036;-77
2022/03/14 04:07:13;;;;;;;169.32;87.53;;;;;;;-1.31;54.31;96366.19;4932915;29;20060;-77
2022/03/14 04:09:39;;;;;;;172.93;87.00;;;;;;;-1.27;54.04;96370.16;4918752;29;20036;-76
2022/03/14 04:12:05;;;;;;;165.02;78.90;;;;;;;-1.28;54.10;96373.63;4917643;29;20039;-77
2022/03/14 04:14:30;;;;;;;141.10;70.25;;;;;;;-1.27;53.59;96372.69;4934476;29;20027;-76
2022/03/14 04:16:58;;;;;;;127.70;64.03;;;;;;;-1.36;53.67;96370.84;4934179;29;20035;-76
2022/03/14 04:19:23;;;;;;;150.15;68.82;;;;;;;-1.34;53.41;96383.50;4931815;29;20094;-77
2022/03/14 04:21:52;;;;;;;171.48;71.65;;;;;;;-1.37;53.10;96384.56;4932610;29;20485;-76
2022/03/14 04:24:18;;;;;;;137.48;56.50;;;;;;;-1.42;53.10;96381.56;4932696;29;20043;-77
2022/03/14 04:26:44;;;;;;;101.50;44.60;;;;;;;-1.47;53.47;96383.63;4933855;29;20520;-76
2022/03/14 04:29:27;;;;;;;85.22;41.88;;;;;;;-1.54;53.25;96385.06;4932738;29;20186;-76
2022/03/14 04:31:52;;;;;;;73.38;37.15;;;;;;;-1.57;53.05;96388.66;4932571;29;20131;-76
2022/03/14 04:34:18;;;;;;;86.03;42.38;;;;;;;-1.67;54.01;96386.91;4934228;29;20437;-76
2022/03/14 04:36:43;;;;;;;105.13;45.75;;;;;;;-1.66;53.50;96396.19;4933410;29;20039;-77
2022/03/14 04:39:08;;;;;;;184.30;89.32;;;;;;;-1.60;53.32;96403.38;4934802;29;20031;-77
2022/03/14 04:41:35;;;;;;;161.50;76.05;;;;;;;-1.53;52.77;96407.06;4933001;29;20495;-77
2022/03/14 04:44:01;;;;;;;119.85;52.83;;;;;;;-1.52;52.83;96417.16;4933685;29;20043;-76
2022/03/14 04:46:27;;;;;;;129.63;62.85;;;;;;;-1.64;53.38;96409.63;4932522;29;20040;-77
2022/03/14 04:48:52;;;;;;;126.43;59.05;;;;;;;-1.69;53.95;96415.09;4932195;29;20515;-77
2022/03/14 04:51:31;;;;;;;116.88;55.17;;;;;;;-1.60;54.12;96418.69;4916913;29;20044;-77
2022/03/14 04:53:56;;;;;;;98.18;45.67;;;;;;;-1.52;53.55;96421.44;4924589;29;20048;-77
2022/03/14 04:56:22;;;;;;;88.07;43.88;;;;;;;-1.49;53.61;96426.31;4933432;29;20047;-76
2022/03/14 04:58:47;;;;;;;73.60;33.08;;;;;;;-1.35;52.59;96432.91;4933729;29;20054;-75
2022/03/14 05:01:13;;;;;;;76.38;36.70;;;;;;;-1.30;52.04;96434.19;4932658;29;20424;-77
2022/03/14 05:03:38;;;;;;;46.63;24.02;;;;;;;-1.17;51.04;96440.88;4916863;29;20055;-77
2022/03/14 05:06:04;;;;;;;73.03;33.13;;;;;;;-1.02;50.91;96443.03;4933599;29;20027;-76
2022/03/14 05:08:29;;;;;;;67.85;33.40;;;;;;;-0.86;50.88;96455.41;4932463;29;20710;-77
2022/03/14 05:10:55;;;;;;;106.97;46.58;;;;;;;-0.53;51.41;96456.22;4916641;29;20038;-76
2022/03/14 05:13:21;;;;;;;147.32;64.95;;;;;;;-0.11;49.58;96455.31;4901363;29;20046;-77
2022/03/14 05:15:46;;;;;;;155.80;74.63;;;;;;;0.42;48.94;96455.19;4931444;29;20036;-77
2022/03/14 05:18:12;;;;;;;172.52;80.40;;;;;;;1.01;46.82;96459.53;4916614;29;20115;-77
2022/03/14 05:20:39;;;;;;;206.45;96.53;;;;;;;1.45;47.25;96455.66;4933765;29;20031;-77
2022/03/14 05:23:04;;;;;;;198.43;96.25;;;;;;;1.92;46.21;96460.06;4933190;29;20407;-77
2022/03/14 05:25:30;;;;;;;112.47;53.35;;;;;;;2.45;43.31;96456.97;4933932;29;20032;-77
2022/03/14 05:27:56;;;;;;;64.78;33.05;;;;;;;2.79;41.03;96462.38;4933746;29;20036;-77
2022/03/14 05:30:22;;;;;;;226.23;115.28;;;;;;;3.24;43.09;96473.44;4932134;29;20071;-76
2022/03/14 05:32:47;;;;;;;204.38;110.07;;;;;;;3.69;41.95;96477.72;4916501;29;20024;-78
2022/03/14 05:35:15;;;;;;;171.05;93.63;;;;;;;4.08;41.71;96467.91;4931415;29;20040;-77
2022/03/14 05:37:40;;;;;;;140.48;70.20;;;;;;;4.50;39.27;96480.06;4916643;29;20519;-77
2022/03/14 05:40:07;;;;;;;75.78;40.70;;;;;;;4.84;38.49;96485.22;4894260;29;20043;-80
2022/03/14 05:42:32;;;;;;;140.32;72.80;;;;;;;5.12;37.72;96484.03;4903726;29;20098;-78
2022/03/14 05:44:58;;;;;;;85.40;43.17;;;;;;;5.32;36.71;96486.34;4918197;29;20500;-81
2022/03/14 05:47:24;;;;;;;70.13;37.70;;;;;;;5.55;36.67;96483.97;4935305;29;20046;-78
2022/03/14 05:49:50;;;;;;;137.48;72.07;;;;;;;5.66;37.94;96483.63;4936025;29;20027;-79
2022/03/14 05:52:16;;;;;;;111.93;56.13;;;;;;;5.81;36.57;96484.63;4904711;29;20036;-79
2022/03/14 05:54:41;;;;;;;70.45;34.30;;;;;;;5.94;35.30;96479.00;4936381;29;20040;-80
2022/03/14 05:57:07;;;;;;;58.38;28.85;;;;;;;6.08;35.61;96487.88;4919278;29;20032;-79
2022/03/14 05:59:32;;;;;;;54.45;26.38;;;;;;;6.16;35.79;96490.44;4904742;29;20036;-79
2022/03/14 06:01:58;;;;;;;52.15;25.92;;;;;;;6.45;33.93;96483.00;4904064;29;20039;-80
2022/03/14 06:04:23;;;;;;;61.15;27.08;;;;;;;6.54;34.19;96494.94;4924513;29;20036;-80
2022/03/14 06:06:49;;;;;;;53.63;27.73;;;;;;;6.71;33.17;96493.13;4941958;29;20063;-79
2022/03/14 06:09:14;;;;;;;42.38;22.55;;;;;;;6.83;32.69;96493.53;4919587;29;20019;-80
2022/03/14 06:11:41;;;;;;;43.65;22.20;;;;;;;7.00;33.30;96492.53;4935220;29;20075;-80
2022/03/14 06:14:07;;;;;;;51.22;22.75;;;;;;;6.99;32.25;96490.88;4934842;29;20091;-80
2022/03/14 06:16:32;;;;;;;39.70;22.70;;;;;;;7.11;32.54;96491.34;4933526;29;20032;-81
2022/03/14 06:18:58;;;;;;;67.78;29.85;;;;;;;7.32;32.30;96501.94;4901219;29;20761;-78
2022/03/14 06:21:24;;;;;;;62.20;26.65;;;;;;;7.45;32.99;96501.34;4929155;29;20040;-77
2022/03/14 06:23:51;;;;;;;50.90;25.20;;;;;;;7.64;31.96;96500.91;4930709;29;20102;-77
2022/03/14 06:26:17;;;;;;;41.72;23.63;;;;;;;7.79;31.80;96503.56;4914036;29;20078;-76
2022/03/14 06:28:42;;;;;;;43.65;24.70;;;;;;;7.97;32.07;96505.84;4930093;29;20530;-78
2022/03/14 06:31:10;;;;;;;59.88;32.28;;;;;;;8.24;31.56;96507.09;4933226;29;20046;-77
2022/03/14 06:33:37;;;;;;;58.80;29.40;;;;;;;8.50;31.21;96506.75;4931641;29;20094;-77
2022/03/14 06:36:02;;;;;;;52.65;28.42;;;;;;;8.50;30.96;96506.75;4936428;29;20035;-79
2022/03/14 06:38:28;;;;;;;47.33;28.25;;;;;;;8.72;29.63;96511.03;4919752;29;20516;-78
2022/03/14 06:40:56;;;;;;;44.42;23.67;;;;;;;8.71;30.11;96525.00;4944285;29;20035;-80
2022/03/14 06:43:23;;;;;;;41.47;23.40;;;;;;;8.76;29.29;96522.66;4953529;29;20048;-79
2022/03/14 06:45:49;;;;;;;45.63;22.00;;;;;;;8.82;29.58;96521.16;4958494;29;20597;-80
2022/03/14 06:48:17;;;;;;;50.25;26.38;;;;;;;8.82;30.08;96527.16;4940172;29;20044;-80
2022/03/14 06:50:43;;;;;;;43.75;22.08;;;;;;;8.95;28.92;96527.34;4939950;29;20032;-80
2022/03/14 06:53:08;;;;;;;46.70;21.83;;;;;;;8.91;29.52;96530.47;4937070;29;20055;-80
2022/03/14 06:55:34;;;;;;;41.10;19.63;;;;;;;8.94;29.07;96530.09;4937054;29;20426;-80
2022/03/14 06:58:00;;;;;;;40.10;21.83;;;;;;;8.94;28.89;96532.69;4920916;29;20555;-80
2022/03/14 07:00:26;;;;;;;37.92;20.42;;;;;;;8.98;28.89;96526.97;4905187;29;20035;-80
2022/03/14 07:02:52;;;;;;;36.55;21.38;;;;;;;9.02;28.75;96535.22;4904959;29;20024;-80
2022/03/14 07:05:20;;;;;;;41.25;23.40;;;;;;;9.09;28.52;96543.06;4904467;29;20039;-79
2022/03/14 07:07:46;;;;;;;44.63;23.77;;;;;;;8.94;28.79;96541.28;4937184;29;20039;-79
2022/03/14 07:10:13;;;;;;;40.97;23.17;;;;;;;9.02;28.51;96541.19;4936913;29;20049;-79
2022/03/14 07:12:45;;;;;;;48.60;24.15;;;;;;;9.02;27.88;96536.00;4936775;29;20028;-79
2022/03/14 07:15:21;;;;;;;49.42;24.95;;;;;;;9.19;28.04;96541.81;4938179;29;20110;-79
2022/03/14 07:17:46;;;;;;;43.65;25.27;;;;;;;9.03;28.70;96544.59;4935291;29;20040;-80
2022/03/14 07:20:12;;;;;;;43.92;25.58;;;;;;;9.00;28.41;96544.97;4902877;29;20050;-80
2022/03/14 07:23:10;;;;;;;44.17;25.10;;;;;;;9.04;28.13;96541.03;4920039;29;20038;-79
2022/03/14 07:25:39;;;;;;;48.22;25.83;;;;;;;9.06;28.79;96544.22;4897753;29;20503;-80
2022/03/14 07:28:07;;;;;;;44.05;24.65;;;;;;;9.19;28.32;96541.81;4904333;29;20436;-80
2022/03/14 07:30:34;;;;;;;42.72;23.75;;;;;;;9.25;27.53;96548.88;4935380;29;20060;-80
2022/03/14 07:32:59;;;;;;;48.25;25.35;;;;;;;9.47;27.87;96547.16;4927451;29;20035;-80
2022/03/14 07:35:26;;;;;;;57.75;27.02;;;;;;;9.57;27.92;96546.84;4934223;29;20046;-80
2022/03/14 07:37:52;;;;;;;50.03;25.52;;;;;;;9.53;27.09;96549.03;4919352;29;20123;-79
2022/03/14 07:40:17;;;;;;;49.75;26.65;;;;;;;9.51;27.94;96552.78;4904888;29;20104;-79
2022/03/14 07:42:45;;;;;;;43.50;25.83;;;;;;;9.56;27.56;96551.25;4922419;29;20415;-80
2022/03/14 07:45:11;;;;;;;43.33;24.25;;;;;;;9.46;27.49;96555.13;4943731;29;20032;-81
2022/03/14 07:47:37;;;;;;;38.25;23.67;;;;;;;9.41;27.47;96552.25;4947222;29;20110;-80
2022/03/14 07:50:05;;;;;;;42.28;22.30;;;;;;;9.53;26.80;96551.63;4907710;29;20035;-80
2022/03/14 07:52:31;;;;;;;45.60;24.70;;;;;;;9.61;26.35;96548.13;4939794;29;20070;-80
2022/03/14 07:54:56;;;;;;;46.50;25.58;;;;;;;9.67;27.20;96559.56;4922629;29;20059;-79
2022/03/14 07:57:21;;;;;;;47.88;26.75;;;;;;;9.67;27.01;96551.78;4940787;29;20483;-80
2022/03/14 07:59:47;;;;;;;51.88;25.08;;;;;;;9.65;26.61;96551.16;4940060;29;20024;-79
2022/03/14 08:02:13;;;;;;;52.22;27.25;;;;;;;9.69;27.42;96544.59;4938026;29;20039;-79
2022/03/14 08:04:39;;;;;;;46.15;24.80;;;;;;;9.65;26.70;96545.97;4935892;29;20514;-77
2022/03/14 08:07:05;;;;;;;51.45;25.20;;;;;;;9.66;26.85;96544.97;4935758;29;20114;-78
2022/03/14 08:09:30;;;;;;;52.80;24.88;;;;;;;9.74;27.98;96545.66;4936915;29;20990;-78
2022/03/14 08:11:58;;;;;;;58.47;25.33;;;;;;;9.81;27.18;96540.53;4937420;29;20055;-78
2022/03/14 08:14:24;;;;;;;54.00;24.90;;;;;;;9.76;26.73;96545.47;4920803;29;20058;-79
2022/03/14 08:16:49;;;;;;;54.60;27.38;;;;;;;9.72;26.57;96549.41;4937228;29;20491;-78
2022/03/14 08:19:25;;;;;;;62.63;31.45;;;;;;;9.75;26.99;96538.66;4939002;29;20422;-79
2022/03/14 08:21:51;;;;;;;59.45;30.38;;;;;;;9.80;28.08;96541.53;4920963;29;20048;-78
2022/03/14 08:24:17;;;;;;;56.83;26.33;;;;;;;9.88;26.91;96546.59;4940651;29;20045;-79
2022/03/14 08:26:43;;;;;;;70.47;31.38;;;;;;;9.82;27.70;96544.75;4939454;29;20176;-79
2022/03/14 08:29:08;;;;;;;52.80;26.85;;;;;;;9.87;26.36;96545.78;4939156;29;20031;-78
2022/03/14 08:31:34;;;;;;;58.22;29.35;;;;;;;9.89;26.99;96546.41;4923859;29;20054;-78
2022/03/14 08:34:00;;;;;;;59.05;30.38;;;;;;;9.90;27.04;96547.22;4941673;29;20024;-78
2022/03/14 08:36:26;;;;;;;58.35;30.10;;;;;;;9.87;27.20;96542.38;4937477;29;20039;-78
2022/03/14 08:38:51;;;;;;;68.47;29.90;;;;;;;9.75;27.25;96547.25;4922809;29;20131;-78
2022/03/14 08:41:17;;;;;;;56.00;29.65;;;;;;;9.54;27.39;96547.22;4938402;29;20068;-78
2022/03/14 08:43:43;;;;;;;62.20;29.95;;;;;;;9.49;27.26;96545.19;4922075;29;20043;-78
2022/03/14 08:46:09;;;;;;;56.22;25.70;;;;;;;9.55;27.31;96549.63;4937034;29;20039;-78
2022/03/14 08:48:35;;;;;;;50.38;26.17;;;;;;;9.58;26.70;96551.88;4937590;29;20032;-77
2022/03/14 08:51:00;;;;;;;44.22;25.30;;;;;;;9.63;26.42;96551.34;4939094;29;20828;-77
2022/03/14 08:53:26;;;;;;;54.25;26.95;;;;;;;9.74;27.22;96542.25;4938517;29;20043;-78
2022/03/14 08:55:52;;;;;;;65.65;24.92;;;;;;;9.81;26.66;96548.34;4936848;29;20035;-78
2022/03/14 08:58:17;;;;;;;40.83;22.83;;;;;;;9.81;25.46;96545.72;4939348;29;20027;-78
2022/03/14 09:00:43;;;;;;;61.05;27.50;;;;;;;9.89;26.38;96550.78;4942256;29;20042;-78
2022/03/14 09:03:09;;;;;;;51.67;23.02;;;;;;;9.86;26.35;96544.19;4921221;29;20045;-78
2022/03/14 09:05:34;;;;;;;42.08;23.40;;;;;;;9.84;25.60;96540.16;4907668;29;20035;-78
2022/03/14 09:08:00;;;;;;;55.70;23.23;;;;;;;9.78;26.25;96531.31;4938024;29;20035;-78
2022/03/14 09:10:25;;;;;;;39.53;20.70;;;;;;;9.80;26.07;96541.53;4937199;29;20036;-78
2022/03/14 09:12:51;;;;;;;41.40;20.80;;;;;;;9.60;25.77;96536.94;4941599;29;20094;-78
2022/03/14 09:15:17;;;;;;;47.78;22.60;;;;;;;9.66;26.29;96539.78;4937380;29;20035;-78
2022/03/14 09:17:50;;;;;;;35.80;20.38;;;;;;;9.53;26.33;96535.22;4912177;29;20090;-78
2022/03/14 09:20:17;;;;;;;34.90;19.83;;;;;;;9.52;25.94;96531.81;4934416;29;20095;-77
2022/03/14 09:22:44;;;;;;;35.72;19.17;;;;;;;9.33;26.13;96527.22;4919214;29;20047;-76
2022/03/14 09:25:11;;;;;;;35.83;18.35;;;;;;;9.33;26.37;96532.41;4933251;29;20131;-78
2022/03/14 09:27:36;;;;;;;40.42;18.98;;;;;;;9.45;27.05;96528.38;4932637;29;20028;-77
2022/03/14 09:30:02;;;;;;;49.75;19.80;;;;;;;9.20;27.03;96530.44;4933524;29;20106;-78
2022/03/14 09:32:28;;;;;;;30.30;13.95;;;;;;;9.15;25.71;96529.38;4935402;29;20042;-78
2022/03/14 09:34:53;;;;;;;26.85;14.82;;;;;;;9.10;25.79;96519.53;4933989;29;20107;-77
2022/03/14 09:37:19;;;;;;;25.13;16.23;;;;;;;9.05;26.12;96515.88;4933338;29;20031;-77
2022/03/14 09:39:44;;;;;;;23.27;14.45;;;;;;;9.09;26.47;96517.91;4931633;29;20155;-77
2022/03/14 09:42:13;;;;;;;35.95;15.80;;;;;;;9.16;26.07;96529.22;4931902;29;20055;-77
2022/03/14 09:44:41;;;;;;;22.00;11.95;;;;;;;8.99;25.59;96518.22;4917340;29;20050;-77
2022/03/14 09:47:06;;;;;;;22.55;11.30;;;;;;;8.81;25.58;96530.75;4933527;29;20584;-77
2022/03/14 09:49:32;;;;;;;18.58;11.38;;;;;;;8.89;26.03;96528.03;4935466;29;20027;-78
2022/03/14 09:51:58;;;;;;;26.98;12.18;;;;;;;9.03;25.65;96527.25;4932487;29;20114;-77
2022/03/14 09:54:24;;;;;;;26.55;13.77;;;;;;;9.19;26.33;96528.03;4933121;29;20114;-77
2022/03/14 09:56:49;;;;;;;16.35;10.35;;;;;;;9.25;26.11;96522.91;4917170;29;20035;-78
2022/03/14 09:59:15;;;;;;;16.50;9.57;;;;;;;8.54;25.59;96523.56;4933982;29;20031;-78
2022/03/14 10:01:41;;;;;;;12.55;8.23;;;;;;;8.46;25.92;96521.03;4936151;29;20031;-77
2022/03/14 10:04:08;;;;;;;15.15;6.88;;;;;;;8.58;25.95;96519.63;4935579;29;20047;-77
2022/03/14 10:06:34;;;;;;;12.95;6.22;;;;;;;8.34;26.10;96533.63;4933549;29;20043;-77
2022/03/14 10:08:59;;;;;;;17.15;7.18;;;;;;;7.87;26.29;96523.44;4914951;29;20028;-77
2022/03/14 10:11:24;;;;;;;9.60;6.85;;;;;;;7.67;26.76;96526.47;4932721;29;20114;-78
2022/03/14 10:13:50;;;;;;;18.83;7.82;;;;;;;7.39;27.26;96530.50;4900861;29;20503;-78
2022/03/14 10:16:16;;;;;;;9.32;7.13;;;;;;;7.46;27.40;96532.22;4935481;29;20032;-78
2022/03/14 10:19:01;;;;;;;7.18;6.07;;;;;;;7.26;27.69;96520.69;4917366;29;20039;-78
2022/03/14 10:21:31;;;;;;;9.45;6.97;;;;;;;7.00;28.18;96517.59;4910800;29;20556;-77
2022/03/14 10:24:00;;;;;;;10.60;7.05;;;;;;;6.79;27.87;96521.50;4933688;29;20416;-77
2022/03/14 10:26:25;;;;;;;10.70;7.55;;;;;;;6.22;28.95;96518.22;4939381;29;20120;-78
2022/03/14 10:28:54;;;;;;;9.77;8.00;;;;;;;6.05;29.50;96514.84;4941161;29;20064;-78
2022/03/14 10:31:54;;;;;;;12.75;7.18;;;;;;;5.81;30.24;96522.53;4947006;29;20047;-77
2022/03/14 10:34:20;;;;;;;15.48;7.78;;;;;;;5.79;30.40;96521.91;4930487;29;20036;-77
2022/03/14 10:36:54;;;;;;;10.40;7.38;;;;;;;5.78;29.66;96521.09;4919358;29;20071;-77
2022/03/14 10:39:27;;;;;;;11.13;8.15;;;;;;;5.78;30.39;96515.13;4939668;29;20042;-78
2022/03/14 10:42:08;;;;;;;15.90;8.10;;;;;;;5.89;30.47;96515.63;4901346;29;20043;-78
2022/03/14 10:44:35;;;;;;;15.30;8.20;;;;;;;6.05;29.61;96506.28;4932422;29;20459;-77
2022/03/14 10:47:01;;;;;;;14.52;7.15;;;;;;;6.26;29.57;96499.66;4914830;29;20034;-78
2022/03/14 10:49:28;;;;;;;8.30;6.38;;;;;;;6.39;29.80;96514.66;4915104;29;20050;-78
2022/03/14 10:51:57;;;;;;;11.38;6.72;;;;;;;6.44;28.86;96520.13;4902247;29;20111;-77
2022/03/14 10:54:23;;;;;;;17.75;6.55;;;;;;;6.36;28.84;96509.03;4922805;29;20154;-78
2022/03/14 10:57:08;;;;;;;9.48;7.30;;;;;;;6.43;29.55;96505.59;4944229;29;20051;-78
2022/03/14 10:59:43;;;;;;;12.27;6.78;;;;;;;6.52;29.49;96509.81;4940112;29;20076;-77
2022/03/14 11:02:15;;;;;;;15.20;7.47;;;;;;;6.47;29.55;96506.88;4942446;29;20122;-77
2022/03/14 11:04:50;;;;;;;11.57;7.22;;;;;;;6.51;29.24;96503.03;4908816;29;20095;-78
2022/03/14 11:07:36;;;;;;;9.48;6.70;;;;;;;6.57;28.59;96501.53;4932240;29;20491;-77
2022/03/14 11:10:06;;;;;;;8.00;6.95;;;;;;;6.77;29.20;96509.72;4931822;29;20115;-77
2022/03/14 11:12:32;;;;;;;11.32;6.95;;;;;;;6.86;28.62;96500.97;4931981;29;20034;-77
2022/03/14 11:15:03;;;;;;;21.40;7.70;;;;;;;6.88;29.05;96499.84;4934248;29;20032;-77
2022/03/14 11:17:29;;;;;;;20.27;8.13;;;;;;;6.89;29.32;96491.09;4934949;29;20043;-77